Time,TemperatureF,DewpointF,PressureIn,WindDirection,WindDirectionDegrees,WindSpeedMPH,WindSpeedGustMPH,Humidity,HourlyPrecipIn,Conditions,Clouds,dailyrainin,SoftwareType,DateUTC
2013-04-08 00:01:00,64.8,62.4,28.12,East,90,11.0,21.0,92,0.00,,,0.00,meteohub,2013-04-08 05:01:00,
2013-04-08 00:06:00,64.4,62.4,28.12,SE,135,12.0,21.0,93,0.00,,,0.00,meteohub,2013-04-08 05:06:00,
2013-04-08 00:11:00,64.4,62.4,28.12,East,90,11.0,21.0,93,0.00,,,0.00,meteohub,2013-04-08 05:11:00,
2013-04-08 00:16:00,64.6,62.4,28.12,East,90,12.0,16.0,93,0.00,,,0.00,meteohub,2013-04-08 05:16:00,
2013-04-08 00:21:00,64.6,62.4,28.12,East,90,11.0,17.0,93,0.00,,,0.00,meteohub,2013-04-08 05:21:00,
2013-04-08 00:26:00,64.2,62.2,28.12,SE,135,12.0,17.0,93,0.00,,,0.00,meteohub,2013-04-08 05:26:00,
2013-04-08 00:31:00,64.4,62.4,28.12,East,90,10.0,17.0,93,0.00,,,0.00,meteohub,2013-04-08 05:31:00,
2013-04-08 00:36:00,64.6,62.4,28.12,NE,45,10.0,15.0,93,0.00,,,0.00,meteohub,2013-04-08 05:36:00,
2013-04-08 00:42:00,64.4,62.4,28.12,East,90,8.0,15.0,93,0.00,,,0.00,meteohub,2013-04-08 05:42:00,
2013-04-08 00:47:00,64.2,62.4,28.12,East,90,11.0,14.0,94,0.00,,,0.00,meteohub,2013-04-08 05:47:00,
2013-04-08 00:52:00,64.2,62.2,28.12,East,90,11.0,14.0,93,0.00,,,0.00,meteohub,2013-04-08 05:52:00,
2013-04-08 00:57:00,64.0,62.2,28.12,East,90,11.0,14.0,94,0.00,,,0.00,meteohub,2013-04-08 05:57:00,
2013-04-08 01:02:00,64.0,62.2,28.12,East,90,12.0,13.0,94,0.00,,,0.00,meteohub,2013-04-08 06:02:00,
2013-04-08 01:07:00,64.0,62.2,28.12,East,90,9.0,13.0,94,0.00,,,0.00,meteohub,2013-04-08 06:07:00,
2013-04-08 01:12:00,63.9,62.4,28.12,East,90,11.0,13.0,95,0.00,,,0.00,meteohub,2013-04-08 06:12:00,
2013-04-08 01:17:00,63.9,62.1,28.12,East,90,9.0,15.0,94,0.00,,,0.00,meteohub,2013-04-08 06:17:00,
2013-04-08 01:22:00,64.2,62.8,28.12,East,90,11.0,15.0,95,0.00,,,0.00,meteohub,2013-04-08 06:22:00,
2013-04-08 01:27:00,64.0,62.6,28.11,East,90,9.0,15.0,95,0.00,,,0.00,meteohub,2013-04-08 06:27:00,
2013-04-08 01:32:00,63.5,62.1,28.11,East,90,11.0,15.0,95,0.00,,,0.00,meteohub,2013-04-08 06:32:00,
2013-04-08 01:37:00,63.9,62.4,28.11,East,90,10.0,15.0,95,0.00,,,0.00,meteohub,2013-04-08 06:37:00,
2013-04-08 01:42:00,63.7,62.2,28.11,East,90,11.0,15.0,95,0.00,,,0.00,meteohub,2013-04-08 06:42:00,
2013-04-08 01:47:00,63.9,62.4,28.11,East,90,8.0,15.0,95,0.00,,,0.00,meteohub,2013-04-08 06:47:00,
2013-04-08 01:52:00,63.7,62.2,28.11,East,90,11.0,15.0,95,0.00,,,0.00,meteohub,2013-04-08 06:52:00,
2013-04-08 01:57:00,63.7,62.2,28.11,East,90,11.0,11.0,95,0.00,,,0.00,meteohub,2013-04-08 06:57:00,
2013-04-08 02:02:00,63.7,62.2,28.11,East,90,7.0,11.0,95,0.00,,,0.00,meteohub,2013-04-08 07:02:00,
2013-04-08 02:07:00,63.3,61.9,28.11,East,90,7.0,11.0,95,0.00,,,0.00,meteohub,2013-04-08 07:07:00,
2013-04-08 02:12:00,63.5,62.1,28.11,SE,135,8.0,11.0,95,0.00,,,0.00,meteohub,2013-04-08 07:12:00,
2013-04-08 02:17:00,63.5,62.1,28.11,SE,135,8.0,11.0,95,0.00,,,0.00,meteohub,2013-04-08 07:17:00,
2013-04-08 02:22:00,63.5,62.1,28.10,East,90,8.0,11.0,95,0.00,,,0.00,meteohub,2013-04-08 07:22:00,
2013-04-08 02:27:00,63.5,62.1,28.11,East,90,8.0,11.0,95,0.00,,,0.00,meteohub,2013-04-08 07:27:00,
2013-04-08 02:32:00,63.5,62.1,28.10,East,90,7.0,11.0,95,0.00,,,0.00,meteohub,2013-04-08 07:32:00,
2013-04-08 02:37:00,63.3,61.9,28.10,SE,135,8.0,11.0,95,0.00,,,0.00,meteohub,2013-04-08 07:37:00,
2013-04-08 02:42:00,63.3,61.9,28.09,ESE,113,9.0,11.0,95,0.00,,,0.00,meteohub,2013-04-08 07:42:00,
2013-04-08 02:47:00,63.1,61.7,28.09,East,90,8.0,10.0,95,0.00,,,0.00,meteohub,2013-04-08 07:47:00,
2013-04-08 02:52:00,63.1,61.7,28.09,SE,135,10.0,11.0,95,0.00,,,0.00,meteohub,2013-04-08 07:52:00,
2013-04-08 02:57:00,63.1,62.1,28.09,East,90,11.0,11.0,96,0.00,,,0.00,meteohub,2013-04-08 07:57:00,
2013-04-08 03:02:00,63.1,61.7,28.09,SE,135,11.0,13.0,95,0.00,,,0.00,meteohub,2013-04-08 08:02:00,
2013-04-08 03:07:00,63.3,61.9,28.09,East,90,8.0,13.0,95,0.00,,,0.00,meteohub,2013-04-08 08:07:00,
2013-04-08 03:12:00,63.5,62.1,28.08,East,90,6.0,13.0,95,0.00,,,0.00,meteohub,2013-04-08 08:12:00,
2013-04-08 03:17:00,64.0,62.6,28.08,East,90,7.0,11.0,95,0.00,,,0.00,meteohub,2013-04-08 08:17:00,
2013-04-08 03:22:00,64.4,62.4,28.08,East,90,8.0,11.0,93,0.00,,,0.00,meteohub,2013-04-08 08:22:00,
2013-04-08 03:28:00,64.6,62.4,28.08,East,90,9.0,11.0,93,0.00,,,0.00,meteohub,2013-04-08 08:28:00,
2013-04-08 03:33:00,64.4,62.1,28.08,East,90,10.0,14.0,92,0.00,,,0.00,meteohub,2013-04-08 08:33:00,
2013-04-08 03:38:00,64.6,62.2,28.08,NE,45,7.0,14.0,92,0.00,,,0.00,meteohub,2013-04-08 08:38:00,
2013-04-08 03:43:00,64.6,62.2,28.09,SE,135,8.0,11.0,92,0.00,,,0.00,meteohub,2013-04-08 08:43:00,
2013-04-08 03:48:00,64.4,62.1,28.08,SE,135,8.0,13.0,92,0.00,,,0.00,meteohub,2013-04-08 08:48:00,
2013-04-08 03:53:00,64.6,62.4,28.08,ESE,113,11.0,13.0,93,0.00,,,0.00,meteohub,2013-04-08 08:53:00,
2013-04-08 03:58:00,64.6,62.4,28.09,ESE,113,6.0,13.0,93,0.00,,,0.00,meteohub,2013-04-08 08:58:00,
2013-04-08 04:03:00,64.2,62.2,28.08,SE,135,10.0,11.0,93,0.00,,,0.00,meteohub,2013-04-08 09:03:00,
2013-04-08 04:08:00,64.4,62.4,28.09,East,90,8.0,11.0,93,0.00,,,0.00,meteohub,2013-04-08 09:08:00,
2013-04-08 04:13:00,64.2,62.2,28.09,East,90,7.0,10.0,93,0.00,,,0.00,meteohub,2013-04-08 09:13:00,
2013-04-08 04:18:00,64.0,62.1,28.08,SE,135,4.0,10.0,93,0.00,,,0.00,meteohub,2013-04-08 09:18:00,
2013-04-08 04:23:00,64.0,62.1,28.08,SE,135,8.0,10.0,93,0.00,,,0.00,meteohub,2013-04-08 09:23:00,
2013-04-08 04:29:00,64.4,62.4,28.09,East,90,5.0,10.0,93,0.00,,,0.00,meteohub,2013-04-08 09:29:00,
2013-04-08 04:34:00,64.0,62.2,28.08,SE,135,8.0,10.0,94,0.00,,,0.00,meteohub,2013-04-08 09:34:00,
2013-04-08 04:39:00,64.0,62.2,28.08,SE,135,6.0,8.0,94,0.00,,,0.00,meteohub,2013-04-08 09:39:00,
2013-04-08 04:44:00,64.4,62.4,28.09,SSW,203,8.0,8.0,93,0.00,,,0.00,meteohub,2013-04-08 09:44:00,
2013-04-08 04:49:00,64.8,62.6,28.08,SE,135,11.0,11.0,93,0.00,,,0.00,meteohub,2013-04-08 09:49:00,
2013-04-08 04:54:00,64.8,62.4,28.09,SE,135,7.0,8.0,92,0.00,,,0.00,meteohub,2013-04-08 09:54:00,
2013-04-08 04:59:00,64.8,62.4,28.09,SE,135,8.0,11.0,92,0.00,,,0.00,meteohub,2013-04-08 09:59:00,
2013-04-08 05:04:00,64.9,62.6,28.09,East,90,9.0,11.0,92,0.00,,,0.00,meteohub,2013-04-08 10:04:00,
2013-04-08 05:10:00,64.9,62.2,28.09,SE,135,8.0,10.0,91,0.00,,,0.00,meteohub,2013-04-08 10:10:00,
2013-04-08 05:15:00,65.1,62.4,28.09,ESE,113,11.0,11.0,91,0.00,,,0.00,meteohub,2013-04-08 10:15:00,
2013-04-08 05:20:00,65.5,62.8,28.09,SE,135,11.0,12.0,91,0.00,,,0.00,meteohub,2013-04-08 10:20:00,
2013-04-08 05:25:00,65.3,62.6,28.09,SE,135,11.0,12.0,91,0.00,,,0.00,meteohub,2013-04-08 10:25:00,
2013-04-08 05:30:00,65.3,62.2,28.09,SE,135,11.0,12.0,90,0.00,,,0.00,meteohub,2013-04-08 10:30:00,
2013-04-08 05:35:00,65.3,62.2,28.09,South,180,12.0,14.0,90,0.00,,,0.00,meteohub,2013-04-08 10:35:00,
2013-04-08 05:40:00,65.5,62.4,28.09,South,180,10.0,15.0,90,0.00,,,0.00,meteohub,2013-04-08 10:40:00,
2013-04-08 05:45:00,65.5,62.2,28.09,South,180,15.0,15.0,89,0.00,,,0.00,meteohub,2013-04-08 10:45:00,
2013-04-08 05:50:00,65.7,62.2,28.09,South,180,11.0,20.0,89,0.00,,,0.00,meteohub,2013-04-08 10:50:00,
2013-04-08 05:55:00,65.5,62.2,28.09,South,180,11.0,20.0,89,0.00,,,0.00,meteohub,2013-04-08 10:55:00,
2013-04-08 06:00:00,65.3,62.2,28.09,SE,135,16.0,20.0,90,0.00,,,0.00,meteohub,2013-04-08 11:00:00,
2013-04-08 06:05:00,65.5,62.2,28.09,South,180,14.0,17.0,89,0.00,,,0.00,meteohub,2013-04-08 11:05:00,
2013-04-08 06:10:00,65.5,62.4,28.09,South,180,15.0,17.0,90,0.00,,,0.00,meteohub,2013-04-08 11:10:00,
2013-04-08 06:15:00,65.5,62.4,28.09,SSE,158,8.0,17.0,90,0.00,,,0.00,meteohub,2013-04-08 11:15:00,
2013-04-08 06:20:00,65.1,62.1,28.09,SE,135,14.0,17.0,90,0.00,,,0.00,meteohub,2013-04-08 11:20:00,
2013-04-08 06:25:00,65.1,62.1,28.10,South,180,8.0,15.0,90,0.00,,,0.00,meteohub,2013-04-08 11:25:00,
2013-04-08 06:30:00,64.8,62.1,28.10,South,180,9.0,14.0,91,0.00,,,0.00,meteohub,2013-04-08 11:30:00,
2013-04-08 06:36:00,64.8,62.1,28.10,East,90,8.0,14.0,91,0.00,,,0.00,meteohub,2013-04-08 11:36:00,
2013-04-08 06:41:00,64.4,61.7,28.10,South,180,8.0,11.0,91,0.00,,,0.00,meteohub,2013-04-08 11:41:00,
2013-04-08 06:46:00,64.4,62.1,28.10,SE,135,6.0,11.0,92,0.00,,,0.00,meteohub,2013-04-08 11:46:00,
2013-04-08 06:51:00,64.2,61.5,28.11,SE,135,4.0,11.0,91,0.00,,,0.00,meteohub,2013-04-08 11:51:00,
2013-04-08 06:56:00,64.0,61.7,28.11,SE,135,6.0,8.0,92,0.00,,,0.00,meteohub,2013-04-08 11:56:00,
2013-04-08 07:01:00,64.2,61.9,28.11,East,90,5.0,8.0,92,0.00,,,0.00,meteohub,2013-04-08 12:01:00,
2013-04-08 07:06:00,63.5,61.2,28.11,SE,135,8.0,8.0,92,0.00,,,0.00,meteohub,2013-04-08 12:06:00,
2013-04-08 07:12:00,63.3,61.3,28.12,SE,135,10.0,10.0,93,0.00,,,0.00,meteohub,2013-04-08 12:12:00,
2013-04-08 07:17:00,62.6,60.6,28.11,SE,135,7.0,10.0,93,0.00,,,0.00,meteohub,2013-04-08 12:17:00,
2013-04-08 07:22:00,62.6,60.8,28.11,East,90,6.0,10.0,94,0.00,,,0.00,meteohub,2013-04-08 12:22:00,
2013-04-08 07:27:00,63.0,61.5,28.11,SE,135,8.0,11.0,95,0.00,,,0.00,meteohub,2013-04-08 12:27:00,
2013-04-08 07:32:00,63.0,61.5,28.12,SE,135,5.0,11.0,95,0.00,,,0.00,meteohub,2013-04-08 12:32:00,
2013-04-08 07:37:00,63.0,61.5,28.12,SE,135,11.0,11.0,95,0.00,,,0.00,meteohub,2013-04-08 12:37:00,
2013-04-08 07:42:00,63.3,61.9,28.12,South,180,5.0,11.0,95,0.00,,,0.00,meteohub,2013-04-08 12:42:00,
2013-04-08 07:47:00,63.3,61.9,28.12,South,180,6.0,11.0,95,0.00,,,0.00,meteohub,2013-04-08 12:47:00,
2013-04-08 07:52:00,63.3,61.9,28.12,East,90,8.0,11.0,95,0.00,,,0.00,meteohub,2013-04-08 12:52:00,
2013-04-08 07:57:00,63.3,61.9,28.13,SE,135,9.0,9.0,95,0.00,,,0.00,meteohub,2013-04-08 12:57:00,
2013-04-08 08:02:00,63.5,61.7,28.13,SE,135,7.0,10.0,94,0.00,,,0.00,meteohub,2013-04-08 13:02:00,
2013-04-08 08:07:00,63.7,61.9,28.13,SE,135,8.0,11.0,94,0.00,,,0.00,meteohub,2013-04-08 13:07:00,
2013-04-08 08:12:00,63.5,61.7,28.13,East,90,8.0,11.0,94,0.00,,,0.00,meteohub,2013-04-08 13:12:00,
2013-04-08 08:17:00,63.0,61.2,28.13,East,90,8.0,11.0,94,0.00,,,0.00,meteohub,2013-04-08 13:17:00,
2013-04-08 08:22:00,62.8,61.3,28.13,East,90,9.0,9.0,95,0.00,,,0.00,meteohub,2013-04-08 13:22:00,
2013-04-08 08:27:00,63.1,61.7,28.13,East,90,9.0,9.0,95,0.00,,,0.00,meteohub,2013-04-08 13:27:00,
2013-04-08 08:32:00,63.7,62.2,28.13,East,90,4.0,11.0,95,0.00,,,0.00,meteohub,2013-04-08 13:32:00,
2013-04-08 08:37:00,64.0,62.6,28.13,SE,135,8.0,11.0,95,0.00,,,0.00,meteohub,2013-04-08 13:37:00,
2013-04-08 08:42:00,64.8,63.0,28.13,NE,45,9.0,11.0,94,0.00,,,0.00,meteohub,2013-04-08 13:42:00,
2013-04-08 08:47:00,65.3,63.1,28.13,East,90,7.0,11.0,93,0.00,,,0.00,meteohub,2013-04-08 13:47:00,
2013-04-08 08:52:00,66.0,63.7,28.13,East,90,7.0,11.0,92,0.00,,,0.00,meteohub,2013-04-08 13:52:00,
2013-04-08 08:57:00,66.6,63.9,28.13,East,90,7.0,11.0,91,0.00,,,0.00,meteohub,2013-04-08 13:57:00,
2013-04-08 09:03:00,67.1,64.0,28.14,SE,135,7.0,11.0,90,0.00,,,0.00,meteohub,2013-04-08 14:03:00,
2013-04-08 09:08:00,67.3,63.9,28.14,East,90,11.0,11.0,89,0.00,,,0.00,meteohub,2013-04-08 14:08:00,
2013-04-08 09:13:00,67.3,63.9,28.14,East,90,11.0,11.0,89,0.00,,,0.00,meteohub,2013-04-08 14:13:00,
2013-04-08 09:18:00,67.6,64.0,28.14,South,180,8.0,12.0,88,0.00,,,0.00,meteohub,2013-04-08 14:18:00,
2013-04-08 09:23:00,68.0,64.0,28.14,SE,135,6.0,12.0,87,0.00,,,0.00,meteohub,2013-04-08 14:23:00,
2013-04-08 09:28:00,68.5,64.2,28.14,SE,135,11.0,12.0,86,0.00,,,0.00,meteohub,2013-04-08 14:28:00,
2013-04-08 09:33:00,68.9,64.2,28.14,East,90,10.0,11.0,85,0.00,,,0.00,meteohub,2013-04-08 14:33:00,
2013-04-08 09:38:00,69.4,64.0,28.14,South,180,9.0,11.0,83,0.00,,,0.00,meteohub,2013-04-08 14:38:00,
2013-04-08 09:43:00,69.8,64.4,28.14,East,90,12.0,12.0,83,0.00,,,0.00,meteohub,2013-04-08 14:43:00,
2013-04-08 09:48:00,70.5,64.4,28.14,East,90,6.0,12.0,81,0.00,,,0.00,meteohub,2013-04-08 14:48:00,
2013-04-08 09:53:00,71.2,64.0,28.14,South,180,8.0,12.0,78,0.00,,,0.00,meteohub,2013-04-08 14:53:00,
2013-04-08 09:58:00,72.0,64.0,28.14,South,180,13.0,13.0,76,0.00,,,0.00,meteohub,2013-04-08 14:58:00,
2013-04-08 10:03:00,72.1,63.9,28.14,South,180,15.0,15.0,75,0.00,,,0.00,meteohub,2013-04-08 15:03:00,
2013-04-08 10:08:00,72.3,63.5,28.14,SW,225,12.0,13.0,74,0.00,,,0.00,meteohub,2013-04-08 15:08:00,
2013-04-08 10:13:00,72.7,63.5,28.14,NE,45,10.0,15.0,73,0.00,,,0.00,meteohub,2013-04-08 15:13:00,
2013-04-08 10:18:00,72.5,63.3,28.14,SW,225,11.0,15.0,73,0.00,,,0.00,meteohub,2013-04-08 15:18:00,
2013-04-08 10:23:00,73.0,63.5,28.14,SE,135,11.0,15.0,72,0.00,,,0.00,meteohub,2013-04-08 15:23:00,
2013-04-08 10:28:00,73.6,63.1,28.14,South,180,11.0,17.0,70,0.00,,,0.00,meteohub,2013-04-08 15:28:00,
2013-04-08 10:33:00,73.6,63.1,28.14,SE,135,14.0,17.0,70,0.00,,,0.00,meteohub,2013-04-08 15:33:00,
2013-04-08 10:38:00,73.6,63.1,28.14,SE,135,11.0,17.0,70,0.00,,,0.00,meteohub,2013-04-08 15:38:00,
2013-04-08 10:43:00,73.6,63.1,28.14,SW,225,11.0,17.0,70,0.00,,,0.00,meteohub,2013-04-08 15:43:00,
2013-04-08 10:48:00,74.5,63.7,28.14,South,180,11.0,17.0,69,0.00,,,0.00,meteohub,2013-04-08 15:48:00,
2013-04-08 10:53:00,74.8,63.5,28.14,South,180,15.0,17.0,68,0.00,,,0.00,meteohub,2013-04-08 15:53:00,
2013-04-08 10:58:00,75.0,63.3,28.14,South,180,12.0,15.0,67,0.00,,,0.00,meteohub,2013-04-08 15:58:00,
2013-04-08 11:03:00,75.6,63.3,28.14,SE,135,11.0,15.0,66,0.00,,,0.00,meteohub,2013-04-08 16:03:00,
2013-04-08 11:08:00,76.3,64.0,28.14,South,180,12.0,16.0,66,0.00,,,0.00,meteohub,2013-04-08 16:08:00,
2013-04-08 11:13:00,76.3,63.7,28.14,South,180,12.0,16.0,65,0.00,,,0.00,meteohub,2013-04-08 16:13:00,
2013-04-08 11:18:00,77.0,63.5,28.14,SE,135,9.0,16.0,63,0.00,,,0.00,meteohub,2013-04-08 16:18:00,
2013-04-08 11:23:00,77.4,63.3,28.14,SE,135,11.0,16.0,62,0.00,,,0.00,meteohub,2013-04-08 16:23:00,
2013-04-08 11:28:00,77.5,63.5,28.14,SW,225,10.0,17.0,62,0.00,,,0.00,meteohub,2013-04-08 16:28:00,
2013-04-08 11:33:00,77.4,63.3,28.14,SE,135,11.0,17.0,62,0.00,,,0.00,meteohub,2013-04-08 16:33:00,
2013-04-08 11:38:00,78.1,63.1,28.13,East,90,12.0,19.0,60,0.00,,,0.00,meteohub,2013-04-08 16:38:00,
2013-04-08 11:43:00,78.3,63.3,28.13,South,180,14.0,19.0,60,0.00,,,0.00,meteohub,2013-04-08 16:43:00,
2013-04-08 11:48:00,79.0,63.0,28.13,SE,135,11.0,19.0,58,0.00,,,0.00,meteohub,2013-04-08 16:48:00,
2013-04-08 11:53:00,79.0,63.0,28.13,South,180,10.0,15.0,58,0.00,,,0.00,meteohub,2013-04-08 16:53:00,
2013-04-08 11:58:00,79.3,63.3,28.13,South,180,13.0,15.0,58,0.00,,,0.00,meteohub,2013-04-08 16:58:00,
2013-04-08 12:04:00,79.3,62.8,28.13,South,180,12.0,17.0,57,0.00,,,0.00,meteohub,2013-04-08 17:04:00,
2013-04-08 12:09:00,79.9,63.9,28.13,ESE,113,8.0,17.0,58,0.00,,,0.00,meteohub,2013-04-08 17:09:00,
2013-04-08 12:14:00,80.1,63.0,28.12,South,180,10.0,17.0,56,0.00,,,0.00,meteohub,2013-04-08 17:14:00,
2013-04-08 12:19:00,80.1,62.4,28.12,SE,135,11.0,14.0,55,0.00,,,0.00,meteohub,2013-04-08 17:19:00,
2013-04-08 12:24:00,80.4,62.8,28.12,South,180,14.0,15.0,55,0.00,,,0.00,meteohub,2013-04-08 17:24:00,
2013-04-08 12:29:00,80.8,63.1,28.12,SE,135,11.0,15.0,55,0.00,,,0.00,meteohub,2013-04-08 17:29:00,
2013-04-08 12:34:00,80.8,63.1,28.11,SE,135,10.0,15.0,55,0.00,,,0.00,meteohub,2013-04-08 17:34:00,
2013-04-08 12:40:00,81.1,63.0,28.11,South,180,13.0,15.0,54,0.00,,,0.00,meteohub,2013-04-08 17:40:00,
2013-04-08 12:45:00,81.0,62.8,28.11,South,180,14.0,15.0,54,0.00,,,0.00,meteohub,2013-04-08 17:45:00,
2013-04-08 12:50:00,81.3,63.1,28.11,East,90,15.0,20.0,54,0.00,,,0.00,meteohub,2013-04-08 17:50:00,
2013-04-08 12:55:00,81.5,62.8,28.10,East,90,11.0,20.0,53,0.00,,,0.00,meteohub,2013-04-08 17:55:00,
2013-04-08 13:00:00,81.7,63.0,28.11,East,90,15.0,18.0,53,0.00,,,0.00,meteohub,2013-04-08 18:00:00,
2013-04-08 13:05:00,81.5,62.8,28.10,SE,135,15.0,15.0,53,0.00,,,0.00,meteohub,2013-04-08 18:05:00,
2013-04-08 13:10:00,82.0,63.7,28.10,SE,135,11.0,18.0,54,0.00,,,0.00,meteohub,2013-04-08 18:10:00,
2013-04-08 13:15:00,82.6,62.6,28.10,South,180,13.0,18.0,51,0.00,,,0.00,meteohub,2013-04-08 18:15:00,
2013-04-08 13:20:00,82.6,62.1,28.09,SE,135,14.0,17.0,50,0.00,,,0.00,meteohub,2013-04-08 18:20:00,
2013-04-08 13:25:00,83.5,62.2,28.09,SE,135,13.0,17.0,49,0.00,,,0.00,meteohub,2013-04-08 18:25:00,
2013-04-08 13:30:00,83.5,62.2,28.09,East,90,15.0,18.0,49,0.00,,,0.00,meteohub,2013-04-08 18:30:00,
2013-04-08 13:35:00,83.5,62.2,28.09,SE,135,11.0,18.0,49,0.00,,,0.00,meteohub,2013-04-08 18:35:00,
2013-04-08 13:37:00,83.5,62.2,28.09,SSE,158,19.0,19.0,49,0.00,,,0.00,meteohub,2013-04-08 18:37:00,
2013-04-08 13:42:00,83.7,61.9,28.09,SE,135,10.0,20.0,48,0.00,,,0.00,meteohub,2013-04-08 18:42:00,
2013-04-08 13:47:00,84.2,62.4,28.08,South,180,15.0,20.0,48,0.00,,,0.00,meteohub,2013-04-08 18:47:00,
2013-04-08 13:52:00,84.4,61.3,28.08,East,90,11.0,20.0,46,0.00,,,0.00,meteohub,2013-04-08 18:52:00,
2013-04-08 13:57:00,84.2,61.7,28.08,East,90,13.0,18.0,47,0.00,,,0.00,meteohub,2013-04-08 18:57:00,
2013-04-08 14:02:00,84.6,60.3,28.08,South,180,18.0,18.0,44,0.00,,,0.00,meteohub,2013-04-08 19:02:00,
2013-04-08 14:07:00,84.6,61.5,28.07,SE,135,16.0,18.0,46,0.00,,,0.00,meteohub,2013-04-08 19:07:00,
2013-04-08 14:12:00,85.1,62.1,28.07,South,180,13.0,19.0,46,0.00,,,0.00,meteohub,2013-04-08 19:12:00,
2013-04-08 14:17:00,85.3,62.2,28.06,SSE,158,14.0,19.0,46,0.00,,,0.00,meteohub,2013-04-08 19:17:00,
2013-04-08 14:22:00,85.3,61.0,28.06,WNW,293,20.0,20.0,44,0.00,,,0.00,meteohub,2013-04-08 19:22:00,
2013-04-08 14:27:00,85.6,61.9,28.06,SE,135,15.0,21.0,45,0.00,,,0.00,meteohub,2013-04-08 19:27:00,
2013-04-08 14:32:00,86.2,61.7,28.06,East,90,19.0,21.0,44,0.00,,,0.00,meteohub,2013-04-08 19:32:00,
2013-04-08 14:37:00,86.5,60.8,28.06,SE,135,10.0,21.0,42,0.00,,,0.00,meteohub,2013-04-08 19:37:00,
2013-04-08 14:42:00,86.5,60.1,28.06,SE,135,10.0,23.0,41,0.00,,,0.00,meteohub,2013-04-08 19:42:00,
2013-04-08 14:47:00,86.9,59.7,28.05,SE,135,15.0,23.0,40,0.00,,,0.00,meteohub,2013-04-08 19:47:00,
2013-04-08 14:52:00,87.1,59.9,28.05,SE,135,15.0,19.0,40,0.00,,,0.00,meteohub,2013-04-08 19:52:00,
2013-04-08 14:57:00,86.7,60.8,28.05,SE,135,11.0,19.0,42,0.00,,,0.00,meteohub,2013-04-08 19:57:00,
2013-04-08 15:02:00,86.5,60.1,28.04,NE,45,14.0,23.0,41,0.00,,,0.00,meteohub,2013-04-08 20:02:00,
2013-04-08 15:07:00,86.7,59.5,28.04,SE,135,15.0,23.0,40,0.00,,,0.00,meteohub,2013-04-08 20:07:00,
2013-04-08 15:12:00,87.4,60.1,28.04,East,90,15.0,18.0,40,0.00,,,0.00,meteohub,2013-04-08 20:12:00,
2013-04-08 15:17:00,87.4,60.1,28.04,SE,135,19.0,19.0,40,0.00,,,0.00,meteohub,2013-04-08 20:17:00,
2013-04-08 15:22:00,88.0,60.6,28.03,East,90,19.0,21.0,40,0.00,,,0.00,meteohub,2013-04-08 20:22:00,
2013-04-08 15:27:00,88.2,60.1,28.03,South,180,15.0,23.0,39,0.00,,,0.00,meteohub,2013-04-08 20:27:00,
2013-04-08 15:32:00,88.2,60.8,28.03,East,90,12.0,23.0,40,0.00,,,0.00,meteohub,2013-04-08 20:32:00,
2013-04-08 15:37:00,87.8,59.7,28.02,East,90,23.0,23.0,39,0.00,,,0.00,meteohub,2013-04-08 20:37:00,
2013-04-08 15:42:00,88.0,59.2,28.02,South,180,15.0,23.0,38,0.00,,,0.00,meteohub,2013-04-08 20:42:00,
2013-04-08 15:47:00,88.2,59.4,28.02,SW,225,17.0,23.0,38,0.00,,,0.00,meteohub,2013-04-08 20:47:00,
2013-04-08 15:52:00,87.6,58.1,28.02,NE,45,14.0,23.0,37,0.00,,,0.00,meteohub,2013-04-08 20:52:00,
2013-04-08 15:57:00,88.2,57.0,28.01,SSW,203,13.0,21.0,35,0.00,,,0.00,meteohub,2013-04-08 20:57:00,
2013-04-08 16:02:00,88.3,57.2,28.01,SE,135,16.0,21.0,35,0.00,,,0.00,meteohub,2013-04-08 21:02:00,
2013-04-08 16:07:00,88.7,58.3,28.01,South,180,15.0,20.0,36,0.00,,,0.00,meteohub,2013-04-08 21:07:00,
2013-04-08 16:12:00,88.5,59.7,28.01,NE,45,12.0,21.0,38,0.00,,,0.00,meteohub,2013-04-08 21:12:00,
2013-04-08 16:17:00,88.3,61.7,28.01,SE,135,14.0,21.0,41,0.00,,,0.00,meteohub,2013-04-08 21:17:00,
2013-04-08 16:22:00,87.8,61.2,28.01,East,90,17.0,21.0,41,0.00,,,0.00,meteohub,2013-04-08 21:22:00,
2013-04-08 16:27:00,87.4,62.2,28.01,South,180,15.0,21.0,43,0.00,,,0.00,meteohub,2013-04-08 21:27:00,
2013-04-08 16:32:00,86.9,62.4,28.01,East,90,21.0,21.0,44,0.00,,,0.00,meteohub,2013-04-08 21:32:00,
2013-04-08 16:37:00,87.3,62.6,28.01,SE,135,25.0,25.0,44,0.00,,,0.00,meteohub,2013-04-08 21:37:00,
2013-04-08 16:42:00,86.9,63.0,28.00,SE,135,24.0,27.0,45,0.00,,,0.00,meteohub,2013-04-08 21:42:00,
2013-04-08 16:47:00,86.5,63.3,28.00,East,90,19.0,27.0,46,0.00,,,0.00,meteohub,2013-04-08 21:47:00,
2013-04-08 16:52:00,86.5,63.3,28.01,SE,135,23.0,27.0,46,0.00,,,0.00,meteohub,2013-04-08 21:52:00,
2013-04-08 16:58:00,85.8,63.3,28.01,South,180,15.0,24.0,47,0.00,,,0.00,meteohub,2013-04-08 21:58:00,
2013-04-08 17:03:00,85.3,62.8,28.01,East,90,15.0,25.0,47,0.00,,,0.00,meteohub,2013-04-08 22:03:00,
2013-04-08 17:08:00,84.9,62.4,28.01,SE,135,24.0,25.0,47,0.00,,,0.00,meteohub,2013-04-08 22:08:00,
2013-04-08 17:13:00,84.4,62.6,28.00,SE,135,21.0,32.0,48,0.00,,,0.00,meteohub,2013-04-08 22:13:00,
2013-04-08 17:18:00,84.4,62.6,28.01,ESE,113,19.0,32.0,48,0.00,,,0.00,meteohub,2013-04-08 22:18:00,
2013-04-08 17:23:00,83.7,62.4,28.01,SE,135,21.0,32.0,49,0.00,,,0.00,meteohub,2013-04-08 22:23:00,
2013-04-08 17:28:00,83.3,62.8,28.01,East,90,13.0,23.0,50,0.00,,,0.00,meteohub,2013-04-08 22:28:00,
2013-04-08 17:33:00,83.7,62.4,28.01,East,90,21.0,23.0,49,0.00,,,0.00,meteohub,2013-04-08 22:33:00,
2013-04-08 17:38:00,83.1,62.1,28.01,SE,135,16.0,22.0,49,0.00,,,0.00,meteohub,2013-04-08 22:38:00,
2013-04-08 17:43:00,82.9,62.4,28.01,East,90,21.0,21.0,50,0.00,,,0.00,meteohub,2013-04-08 22:43:00,
2013-04-08 17:48:00,82.2,62.2,28.01,SE,135,23.0,23.0,51,0.00,,,0.00,meteohub,2013-04-08 22:48:00,
2013-04-08 17:53:00,81.7,62.4,28.01,East,90,23.0,23.0,52,0.01,,,0.01,meteohub,2013-04-08 22:53:00,
2013-04-08 17:58:00,81.3,62.1,28.01,SE,135,19.0,23.0,52,0.01,,,0.01,meteohub,2013-04-08 22:58:00,
2013-04-08 18:03:00,81.5,62.8,28.01,East,90,14.0,23.0,53,0.01,,,0.01,meteohub,2013-04-08 23:03:00,
2013-04-08 18:08:00,81.1,61.9,28.01,SSE,158,23.0,23.0,52,0.01,,,0.01,meteohub,2013-04-08 23:08:00,
2013-04-08 18:13:00,80.4,61.7,28.01,SE,135,21.0,25.0,53,0.01,,,0.01,meteohub,2013-04-08 23:13:00,
2013-04-08 18:18:00,79.9,62.8,28.01,East,90,21.0,25.0,56,0.01,,,0.01,meteohub,2013-04-08 23:18:00,
2013-04-08 18:23:00,79.2,62.6,28.01,SE,135,19.0,27.0,57,0.01,,,0.01,meteohub,2013-04-08 23:23:00,
2013-04-08 18:28:00,79.3,62.8,28.00,East,90,17.0,27.0,57,0.01,,,0.01,meteohub,2013-04-08 23:28:00,
2013-04-08 18:33:00,79.2,63.1,28.01,East,90,19.0,27.0,58,0.01,,,0.01,meteohub,2013-04-08 23:33:00,
2013-04-08 18:38:00,78.4,63.0,28.00,East,90,21.0,24.0,59,0.04,,,0.04,meteohub,2013-04-08 23:38:00,
2013-04-08 18:44:00,78.4,63.0,28.01,East,90,23.0,24.0,59,0.04,,,0.04,meteohub,2013-04-08 23:44:00,
2013-04-08 18:49:00,78.3,63.3,28.01,East,90,20.0,24.0,60,0.04,,,0.04,meteohub,2013-04-08 23:49:00,
2013-04-08 18:54:00,77.7,62.8,28.01,East,90,22.0,23.0,60,0.02,,,0.04,meteohub,2013-04-08 23:54:00,
2013-04-08 18:59:00,77.7,63.1,28.01,East,90,18.0,24.0,61,0.02,,,0.04,meteohub,2013-04-08 23:59:00,
2013-04-08 19:04:00,77.4,62.8,28.01,East,90,14.0,24.0,61,0.02,,,0.04,meteohub,2013-04-09 00:04:00,
2013-04-08 19:09:00,77.0,62.6,28.01,SSE,158,20.0,24.0,61,0.02,,,0.00,meteohub,2013-04-09 00:09:00,
2013-04-08 19:14:00,77.0,63.0,28.01,South,180,17.0,23.0,62,0.02,,,0.00,meteohub,2013-04-09 00:14:00,
2013-04-08 19:19:00,76.5,63.0,28.01,SE,135,17.0,23.0,63,0.02,,,0.00,meteohub,2013-04-09 00:19:00,
2013-04-08 19:24:00,75.9,62.4,28.01,NE,45,20.0,21.0,63,0.02,,,0.00,meteohub,2013-04-09 00:24:00,
2013-04-08 19:29:00,76.1,63.0,28.01,SE,135,18.0,23.0,64,0.02,,,0.00,meteohub,2013-04-09 00:29:00,
2013-04-08 19:34:00,75.6,63.0,28.02,East,90,14.0,23.0,65,0.02,,,0.00,meteohub,2013-04-09 00:34:00,
2013-04-08 19:39:00,75.2,63.1,28.02,NE,45,18.0,23.0,66,0.00,,,0.00,meteohub,2013-04-09 00:39:00,
2013-04-08 19:44:00,74.7,63.0,28.02,East,90,11.0,23.0,67,0.00,,,0.00,meteohub,2013-04-09 00:44:00,
2013-04-08 19:50:00,74.1,63.0,28.02,SE,135,14.0,22.0,68,0.00,,,0.00,meteohub,2013-04-09 00:50:00,
2013-04-08 19:55:00,73.8,63.0,28.02,East,90,17.0,22.0,69,0.00,,,0.00,meteohub,2013-04-09 00:55:00,
2013-04-08 20:00:00,73.8,63.3,28.02,East,90,17.0,22.0,70,0.00,,,0.00,meteohub,2013-04-09 01:00:00,
2013-04-08 20:05:00,73.6,63.1,28.02,East,90,15.0,22.0,70,0.00,,,0.00,meteohub,2013-04-09 01:05:00,
2013-04-08 20:10:00,73.2,62.8,28.02,East,90,15.0,19.0,70,0.00,,,0.00,meteohub,2013-04-09 01:10:00,
2013-04-08 20:15:00,72.9,62.4,28.02,SE,135,18.0,22.0,70,0.00,,,0.00,meteohub,2013-04-09 01:15:00,
2013-04-08 20:20:00,73.0,63.1,28.02,SE,135,17.0,22.0,71,0.00,,,0.00,meteohub,2013-04-09 01:20:00,
2013-04-08 20:25:00,72.7,63.1,28.02,East,90,17.0,20.0,72,0.00,,,0.00,meteohub,2013-04-09 01:25:00,
2013-04-08 20:30:00,72.5,63.0,28.02,East,90,15.0,20.0,72,0.00,,,0.00,meteohub,2013-04-09 01:30:00,
2013-04-08 20:35:00,72.5,63.0,28.03,East,90,15.0,20.0,72,0.00,,,0.00,meteohub,2013-04-09 01:35:00,
2013-04-08 20:40:00,72.1,62.6,28.02,SE,135,17.0,21.0,72,0.00,,,0.00,meteohub,2013-04-09 01:40:00,
2013-04-08 20:45:00,72.1,62.6,28.03,East,90,17.0,21.0,72,0.00,,,0.00,meteohub,2013-04-09 01:45:00,
2013-04-08 20:50:00,72.1,62.6,28.03,East,90,18.0,22.0,72,0.00,,,0.00,meteohub,2013-04-09 01:50:00,
2013-04-08 20:55:00,72.1,62.6,28.04,SE,135,15.0,22.0,72,0.00,,,0.00,meteohub,2013-04-09 01:55:00,
2013-04-08 21:00:00,72.1,62.6,28.04,SE,135,13.0,22.0,72,0.00,,,0.00,meteohub,2013-04-09 02:00:00,
2013-04-08 21:05:00,72.1,63.0,28.04,SE,135,11.0,22.0,73,0.00,,,0.00,meteohub,2013-04-09 02:05:00,
2013-04-08 21:10:00,72.0,62.8,28.04,East,90,19.0,22.0,73,0.00,,,0.00,meteohub,2013-04-09 02:10:00,
2013-04-08 21:15:00,71.6,62.4,28.04,East,90,12.0,22.0,73,0.00,,,0.00,meteohub,2013-04-09 02:15:00,
2013-04-08 21:20:00,71.8,62.6,28.04,East,90,13.0,22.0,73,0.00,,,0.00,meteohub,2013-04-09 02:20:00,
2013-04-08 21:25:00,71.4,62.8,28.04,East,90,17.0,22.0,74,0.00,,,0.00,meteohub,2013-04-09 02:25:00,
2013-04-08 21:30:00,71.4,63.1,28.05,East,90,18.0,21.0,75,0.00,,,0.00,meteohub,2013-04-09 02:30:00,
2013-04-08 21:35:00,71.2,63.3,28.05,NE,45,14.0,21.0,76,0.00,,,0.00,meteohub,2013-04-09 02:35:00,
2013-04-08 21:41:00,71.1,63.1,28.06,East,90,21.0,21.0,76,0.00,,,0.00,meteohub,2013-04-09 02:41:00,
2013-04-08 21:46:00,71.1,63.5,28.06,East,90,11.0,21.0,77,0.00,,,0.00,meteohub,2013-04-09 02:46:00,
2013-04-08 21:51:00,70.7,63.5,28.06,East,90,15.0,21.0,78,0.00,,,0.00,meteohub,2013-04-09 02:51:00,
2013-04-08 21:56:00,70.5,63.3,28.06,SE,135,21.0,21.0,78,0.00,,,0.00,meteohub,2013-04-09 02:56:00,
2013-04-08 22:01:00,70.5,63.7,28.06,East,90,21.0,21.0,79,0.00,,,0.00,meteohub,2013-04-09 03:01:00,
2013-04-08 22:06:00,70.0,63.5,28.06,SE,135,15.0,21.0,80,0.00,,,0.00,meteohub,2013-04-09 03:06:00,
2013-04-08 22:11:00,69.8,64.0,28.06,SE,135,16.0,21.0,82,0.00,,,0.00,meteohub,2013-04-09 03:11:00,
2013-04-08 22:16:00,69.8,64.4,28.06,East,90,13.0,21.0,83,0.00,,,0.00,meteohub,2013-04-09 03:16:00,
2013-04-08 22:21:00,69.4,64.0,28.06,East,90,23.0,23.0,83,0.00,,,0.00,meteohub,2013-04-09 03:21:00,
2013-04-08 22:26:00,69.3,64.2,28.06,SE,135,17.0,23.0,84,0.00,,,0.00,meteohub,2013-04-09 03:26:00,
2013-04-08 22:31:00,69.4,64.4,28.07,East,90,21.0,23.0,84,0.00,,,0.00,meteohub,2013-04-09 03:31:00,
2013-04-08 22:37:00,69.3,64.2,28.07,SE,135,18.0,25.0,84,0.00,,,0.00,meteohub,2013-04-09 03:37:00,
2013-04-08 22:42:00,69.4,64.4,28.07,SE,135,13.0,25.0,84,0.00,,,0.00,meteohub,2013-04-09 03:42:00,
2013-04-08 22:47:00,69.3,64.2,28.07,NE,45,23.0,25.0,84,0.00,,,0.00,meteohub,2013-04-09 03:47:00,
2013-04-08 22:52:00,69.4,64.4,28.07,East,90,18.0,23.0,84,0.00,,,0.00,meteohub,2013-04-09 03:52:00,
2013-04-08 22:57:00,69.4,64.4,28.07,East,90,17.0,23.0,84,0.00,,,0.00,meteohub,2013-04-09 03:57:00,
2013-04-08 23:00:00,69.1,64.0,28.07,SE,135,21.0,23.0,84,0.00,,,0.00,meteohub,2013-04-09 04:00:00,
2013-04-08 23:05:00,69.1,64.0,28.06,East,90,17.0,25.0,84,0.00,,,0.00,meteohub,2013-04-09 04:05:00,
2013-04-08 23:10:00,69.3,64.6,28.06,ESE,113,22.0,25.0,85,0.00,,,0.00,meteohub,2013-04-09 04:10:00,
2013-04-08 23:15:00,69.3,64.6,28.06,East,90,16.0,26.0,85,0.00,,,0.00,meteohub,2013-04-09 04:15:00,
2013-04-08 23:20:00,68.9,64.2,28.06,East,90,16.0,26.0,85,0.00,,,0.00,meteohub,2013-04-09 04:20:00,
2013-04-08 23:25:00,68.9,64.2,28.06,SE,135,17.0,26.0,85,0.00,,,0.00,meteohub,2013-04-09 04:25:00,
2013-04-08 23:30:00,68.9,64.2,28.06,East,90,8.0,21.0,85,0.00,,,0.00,meteohub,2013-04-09 04:30:00,
2013-04-08 23:35:00,68.7,64.4,28.06,East,90,17.0,21.0,86,0.00,,,0.00,meteohub,2013-04-09 04:35:00,
2013-04-08 23:40:00,68.5,64.6,28.06,SE,135,15.0,17.0,87,0.00,,,0.00,meteohub,2013-04-09 04:40:00,
2013-04-08 23:45:00,68.4,64.4,28.06,SE,135,15.0,17.0,87,0.00,,,0.00,meteohub,2013-04-09 04:45:00,
2013-04-08 23:50:00,68.4,64.6,28.06,East,90,15.0,23.0,88,0.00,,,0.00,meteohub,2013-04-09 04:50:00,
2013-04-08 23:55:00,68.2,64.4,28.06,SE,135,16.0,23.0,88,0.00,,,0.00,meteohub,2013-04-09 04:55:00,